Time;durP1;ratioP1;P1;durP2;ratioP2;P2;SDS_P1;SDS_P2;PMS_P1;PMS_P2;Temp;Humidity;BMP_temperature;BMP_pressure;BME280_temperature;BME280_humidity;BME280_pressure;Samples;Min_cycle;Max_cycle;Signal;HPM_P1;HPM_P2
2023/06/06 00:05:04;;;;;;;4.50;2.50;;;;;;;17.29;43.08;98893.99;435323;1256;109015;-43
2023/06/06 00:15:13;;;;;;;4.40;2.60;;;;;;;17.21;43.09;98893.87;435521;1250;107238;-44
2023/06/06 00:35:27;;;;;;;3.80;2.50;;;;;;;17.00;43.50;98873.48;435428;1264;95345;-43
2023/06/06 00:45:34;;;;;;;4.80;3.20;;;;;;;16.89;43.63;98869.73;435412;1255;108671;-45
2023/06/06 01:05:53;;;;;;;5.40;2.90;;;;;;;16.70;43.83;98869.37;435125;1255;95974;-43
2023/06/06 01:16:06;;;;;;;7.20;3.10;;;;;;;16.62;44.14;98862.83;435493;1261;95981;-43
2023/06/06 01:26:13;;;;;;;5.20;3.10;;;;;;;16.50;44.32;98857.54;435333;1255;107672;-43
2023/06/06 01:36:20;;;;;;;5.20;2.70;;;;;;;16.40;44.50;98860.02;435251;1264;108234;-43
2023/06/06 01:46:30;;;;;;;3.00;2.80;;;;;;;16.37;44.69;98863.70;435420;1264;95897;-44
2023/06/06 01:56:37;;;;;;;5.10;3.40;;;;;;;16.29;44.97;98868.61;435397;1257;95731;-44
2023/06/06 02:06:45;;;;;;;4.20;3.00;;;;;;;16.24;45.09;98865.14;435764;1264;110151;-44
2023/06/06 02:16:52;;;;;;;6.30;3.00;;;;;;;16.25;45.18;98866.20;435386;1251;107135;-45
2023/06/06 02:26:59;;;;;;;7.60;3.10;;;;;;;16.24;45.36;98865.77;435204;1257;95278;-44
2023/06/06 02:37:06;;;;;;;6.30;3.00;;;;;;;16.21;45.53;98860.32;435452;1257;95288;-44
2023/06/06 02:47:13;;;;;;;6.10;2.50;;;;;;;16.24;45.58;98860.65;435282;1264;109306;-44
2023/06/06 02:57:21;;;;;;;4.40;2.40;;;;;;;16.33;45.58;98858.55;435332;1255;108628;-43
2023/06/06 03:07:28;;;;;;;9.40;2.90;;;;;;;16.36;45.48;98853.67;435339;1256;95461;-44
2023/06/06 03:27:42;;;;;;;7.60;3.30;;;;;;;16.49;45.81;98852.04;435392;1251;108674;-44
2023/06/06 03:37:55;;;;;;;4.60;3.00;;;;;;;16.43;45.88;98851.92;434804;1257;608572;-43
2023/06/06 03:48:02;;;;;;;7.20;4.00;;;;;;;16.46;46.21;98855.23;435483;1257;95307;-44
2023/06/06 03:58:10;;;;;;;5.50;3.30;;;;;;;16.43;46.19;98851.07;435351;1257;96158;-44
2023/06/06 04:08:18;;;;;;;10.70;3.60;;;;;;;16.38;46.34;98862.48;435483;1257;108180;-44
2023/06/06 04:18:25;;;;;;;6.50;2.70;;;;;;;16.39;46.62;98866.05;435568;1251;107667;-45
2023/06/06 04:38:39;;;;;;;7.20;3.30;;;;;;;16.30;46.76;98857.42;435326;1251;95216;-44
2023/06/06 04:48:48;;;;;;;5.30;3.10;;;;;;;16.27;47.23;98853.50;435437;1254;108618;-43
2023/06/06 04:58:56;;;;;;;17.00;3.70;;;;;;;16.40;47.32;98848.66;435433;1257;108338;-43
2023/06/06 05:19:10;;;;;;;8.30;3.10;;;;;;;16.61;47.48;98849.04;435306;1251;95694;-44
2023/06/06 05:29:18;;;;;;;7.30;3.40;;;;;;;16.76;47.43;98845.41;435372;1251;109544;-43
2023/06/06 05:39:25;;;;;;;6.50;3.40;;;;;;;17.20;47.44;98845.08;435439;1251;108012;-45
2023/06/06 05:49:33;;;;;;;4.80;2.60;;;;;;;17.75;46.97;98847.98;435369;1256;95302;-44
2023/06/06 05:59:41;;;;;;;7.80;3.00;;;;;;;18.36;46.06;98845.92;435470;1255;95268;-43
2023/06/06 06:09:49;;;;;;;5.80;3.00;;;;;;;18.76;45.43;98846.77;435412;1251;107611;-43
2023/06/06 06:19:56;;;;;;;8.50;2.80;;;;;;;18.99;45.19;98849.98;435463;1254;109307;-43
2023/06/06 06:30:04;;;;;;;5.70;3.90;;;;;;;19.30;44.81;98846.85;435556;1251;95377;-43
2023/06/06 06:50:17;;;;;;;6.80;2.90;;;;;;;19.75;43.82;98853.86;435322;1251;109846;-43
2023/06/06 07:10:31;;;;;;;5.90;3.60;;;;;;;19.78;44.06;98856.35;435474;1253;95277;-44
2023/06/06 07:20:39;;;;;;;7.30;4.10;;;;;;;19.99;44.37;98852.38;435315;1253;95567;-44
2023/06/06 07:30:47;;;;;;;8.90;4.00;;;;;;;20.13;44.51;98843.12;435406;1251;109238;-44
2023/06/06 07:51:02;;;;;;;5.00;3.50;;;;;;;21.26;44.31;98827.64;435483;1249;107826;-44
2023/06/06 08:01:10;;;;;;;8.80;3.40;;;;;;;22.02;43.91;98828.77;435388;1253;95287;-45
2023/06/06 08:11:19;;;;;;;12.20;3.90;;;;;;;22.75;43.38;98828.10;435619;1251;108838;-44
2023/06/06 08:21:26;;;;;;;4.20;3.40;;;;;;;23.40;42.30;98806.50;435357;1251;107858;-43
2023/06/06 08:31:32;;;;;;;;;;;;;;;23.61;41.55;98800.23;435553;1250;96623;-43
2023/06/06 08:41:45;;;;;;;13.30;4.10;;;;;;;23.60;41.14;98801.45;435461;1253;109663;-44
2023/06/06 08:51:53;;;;;;;7.20;3.10;;;;;;;24.02;40.45;98796.24;435521;1250;107544;-44
2023/06/06 09:02:00;;;;;;;8.70;4.30;;;;;;;24.16;39.63;98792.95;435408;1250;97880;-43
2023/06/06 09:12:09;;;;;;;9.10;3.10;;;;;;;24.50;39.64;98786.52;435547;1250;111705;-42
2023/06/06 09:22:16;;;;;;;5.60;3.00;;;;;;;24.61;38.70;98787.16;435418;1250;106807;-44
2023/06/06 09:32:27;;;;;;;7.20;3.60;;;;;;;24.46;38.29;98786.70;435336;1251;97896;-42
2023/06/06 09:42:35;;;;;;;13.50;4.00;;;;;;;24.68;38.25;98787.46;435447;1253;108790;-42
2023/06/06 09:52:42;;;;;;;12.70;4.50;;;;;;;24.64;37.91;98784.64;435307;1253;107671;-44
2023/06/06 10:02:52;;;;;;;6.40;3.50;;;;;;;25.01;37.31;98777.84;435400;1250;97674;-42
2023/06/06 10:13:00;;;;;;;5.10;3.50;;;;;;;25.02;36.87;98772.55;435358;1251;110093;-41
2023/06/06 10:23:08;;;;;;;8.70;3.90;;;;;;;24.96;37.67;98766.60;435211;1251;107573;-42
2023/06/06 10:33:15;;;;;;;3.80;3.40;;;;;;;24.70;37.74;98762.92;435563;1253;97884;-43
2023/06/06 10:43:20;;;;;;;6.80;4.00;;;;;;;24.68;37.66;98760.07;435543;1251;109981;-43
2023/06/06 10:53:43;;;;;;;5.60;3.60;;;;;;;24.92;37.32;98763.74;435409;1253;108507;-49
2023/06/06 11:03:54;;;;;;;6.40;4.10;;;;;;;24.92;36.59;98757.31;435629;1250;118357;-45
2023/06/06 11:14:03;;;;;;;9.70;3.70;;;;;;;25.34;36.47;98758.25;435502;1250;108449;-44
2023/06/06 11:24:14;;;;;;;11.20;3.60;;;;;;;25.26;36.42;98744.84;435618;1253;98101;-42
2023/06/06 11:34:22;;;;;;;9.70;4.40;;;;;;;25.50;36.76;98745.33;435443;1253;110863;-44
2023/06/06 12:04:49;;;;;;;5.80;4.00;;;;;;;25.54;36.04;98742.29;435486;1253;110559;-43
2023/06/06 12:14:58;;;;;;;8.30;4.00;;;;;;;25.82;35.52;98734.02;435427;1253;107951;-43
2023/06/06 12:25:06;;;;;;;9.80;3.80;;;;;;;25.71;35.19;98726.38;435701;1251;97861;-42
2023/06/06 12:35:22;;;;;;;8.20;3.60;;;;;;;25.64;35.14;98717.82;435665;1253;110937;-41
2023/06/06 12:45:30;;;;;;;7.60;3.20;;;;;;;25.85;35.20;98712.30;435441;1250;108447;-44
2023/06/06 12:55:37;;;;;;;3.50;3.20;;;;;;;25.79;34.65;98705.96;435489;1253;97857;-41
2023/06/06 13:05:50;;;;;;;10.40;3.70;;;;;;;25.76;35.23;98696.94;435490;1250;109222;-42
2023/06/06 13:15:58;;;;;;;5.80;3.00;;;;;;;25.66;35.58;98698.14;435329;1253;97899;-43
2023/06/06 13:26:05;;;;;;;14.50;4.10;;;;;;;25.36;35.95;98695.11;435488;1253;110848;-45
2023/06/06 13:36:13;;;;;;;4.40;3.30;;;;;;;24.96;36.46;98695.60;435420;1254;109303;-43
2023/06/06 13:46:22;;;;;;;9.50;4.30;;;;;;;24.55;37.15;98687.18;435556;1253;96667;-45
2023/06/06 13:56:29;;;;;;;10.90;4.80;;;;;;;23.95;38.98;98692.46;435523;1253;109128;-43
2023/06/06 14:06:35;;;;;;;11.30;5.30;;;;;;;23.25;40.50;98699.27;435325;1253;108136;-43
2023/06/06 14:16:43;;;;;;;16.10;6.70;;;;;;;22.63;42.13;98713.88;435529;1250;97473;-43
2023/06/06 14:26:49;;;;;;;;;;;;;;;22.30;43.33;98714.81;435537;1253;110460;-43
2023/06/06 14:36:57;;;;;;;13.90;7.50;;;;;;;22.07;44.80;98719.52;435312;1251;107556;-43
2023/06/06 15:07:17;;;;;;;11.20;6.20;;;;;;;20.93;50.03;98734.20;435428;1255;97964;-44
2023/06/06 15:17:24;;;;;;;8.70;5.50;;;;;;;20.95;50.19;98728.47;435322;1251;111679;-44
2023/06/06 15:27:32;;;;;;;11.10;6.00;;;;;;;21.13;50.56;98725.41;435386;1257;108077;-44
2023/06/06 15:37:40;;;;;;;7.00;5.30;;;;;;;21.29;50.59;98712.46;435044;1251;383050;-44
2023/06/06 15:47:47;;;;;;;10.30;4.60;;;;;;;21.19;50.18;98709.39;435410;1255;108442;-44
2023/06/06 15:57:53;;;;;;;;;;;;;;;21.20;49.33;98699.52;435455;1255;96599;-43
2023/06/06 16:08:00;;;;;;;9.50;4.80;;;;;;;20.93;49.03;98702.58;435421;1257;109650;-43
2023/06/06 16:38:17;;;;;;;9.60;5.20;;;;;;;20.36;49.74;98705.30;435411;1256;109689;-43
2023/06/06 16:48:24;;;;;;;7.40;4.60;;;;;;;20.24;50.43;98705.38;435288;1251;108218;-43
2023/06/06 16:58:32;;;;;;;9.70;5.70;;;;;;;20.06;51.23;98703.73;435240;1255;97899;-43
2023/06/06 17:08:40;;;;;;;11.00;5.60;;;;;;;19.99;51.77;98701.86;435367;1251;110262;-43
2023/06/06 17:18:47;;;;;;;8.90;5.60;;;;;;;19.95;52.42;98698.90;435227;1251;108141;-44
2023/06/06 17:28:54;;;;;;;5.80;5.20;;;;;;;19.85;53.29;98692.64;435453;1255;97748;-44
2023/06/06 17:39:02;;;;;;;9.70;6.10;;;;;;;19.80;53.87;98696.57;435384;1254;110204;-44
2023/06/06 17:49:11;;;;;;;12.80;6.90;;;;;;;19.74;54.07;98699.71;435237;1257;107974;-45
2023/06/06 17:59:17;;;;;;;;;;;;;;;19.56;54.54;98707.75;435368;1256;97785;-44
2023/06/06 18:09:25;;;;;;;20.80;11.10;;;;;;;19.30;55.30;98707.91;435267;1255;110597;-44
2023/06/06 18:19:32;;;;;;;13.50;7.60;;;;;;;19.16;55.66;98707.90;435376;1257;107685;-44
2023/06/06 18:29:39;;;;;;;9.30;6.40;;;;;;;18.98;56.37;98704.76;435537;1251;98018;-43
2023/06/06 18:39:46;;;;;;;8.20;5.90;;;;;;;18.66;57.04;98715.83;435428;1254;111582;-46
2023/06/06 18:49:54;;;;;;;10.90;7.60;;;;;;;18.32;57.82;98733.08;435347;1251;107617;-45
2023/06/06 19:00:03;;;;;;;14.10;6.60;;;;;;;17.97;59.04;98742.27;435161;1261;98001;-44
2023/06/06 19:10:09;;;;;;;8.70;6.00;;;;;;;17.73;60.49;98751.56;435307;1256;110096;-44
2023/06/06 19:30:22;;;;;;;13.60;7.90;;;;;;;17.70;61.77;98761.20;435428;1251;97762;-44
2023/06/06 19:40:30;;;;;;;12.70;10.10;;;;;;;17.73;62.52;98759.64;435404;1251;109934;-45
2023/06/06 19:50:37;;;;;;;13.40;14.60;;;;;;;17.64;63.39;98759.77;435343;1251;97868;-44
2023/06/06 20:10:49;;;;;;;10.60;8.90;;;;;;;17.42;64.83;98748.95;435248;1261;108081;-45
2023/06/06 20:20:56;;;;;;;10.90;9.60;;;;;;;17.28;65.38;98743.95;435281;1250;97870;-47
2023/06/06 20:41:12;;;;;;;11.20;9.70;;;;;;;17.10;66.92;98737.95;435430;1255;96592;-45
2023/06/06 20:51:21;;;;;;;15.90;11.20;;;;;;;17.12;67.36;98736.50;435306;1256;110829;-45
2023/06/06 21:01:28;;;;;;;17.50;13.00;;;;;;;17.13;67.94;98742.91;435360;1256;107191;-45
2023/06/06 21:11:34;;;;;;;23.80;13.80;;;;;;;16.92;68.03;98745.64;435284;1257;97489;-45
2023/06/06 21:21:42;;;;;;;18.50;13.10;;;;;;;16.69;68.62;98751.19;435381;1255;108645;-44
2023/06/06 21:31:49;;;;;;;17.60;13.40;;;;;;;16.61;69.24;98754.16;435350;1260;97886;-44
2023/06/06 21:41:55;;;;;;;17.70;14.10;;;;;;;16.58;69.66;98756.35;435351;1264;110730;-44
2023/06/06 21:52:03;;;;;;;20.50;14.50;;;;;;;16.47;70.04;98755.46;435172;1251;108007;-43
2023/06/06 22:02:10;;;;;;;17.10;14.90;;;;;;;16.51;70.84;98762.20;435248;1251;97867;-44
2023/06/06 22:12:19;;;;;;;19.50;15.40;;;;;;;16.56;71.05;98761.52;435360;1264;108040;-43
2023/06/06 22:22:26;;;;;;;20.00;14.40;;;;;;;16.52;71.04;98763.75;435296;1254;97492;-43
2023/06/06 22:32:33;;;;;;;18.80;13.00;;;;;;;16.47;71.50;98761.45;435311;1255;110539;-44
2023/06/06 22:42:41;;;;;;;19.00;14.70;;;;;;;16.49;71.93;98745.16;435184;1255;108650;-44
2023/06/06 22:52:49;;;;;;;18.70;14.60;;;;;;;16.61;72.22;98739.21;435408;1251;97896;-42
2023/06/06 23:02:57;;;;;;;17.40;13.20;;;;;;;16.68;72.55;98726.38;435418;1256;107579;-42
2023/06/06 23:13:05;;;;;;;14.60;13.10;;;;;;;16.68;72.40;98721.93;435370;1255;96783;-42
2023/06/06 23:23:12;;;;;;;15.40;10.30;;;;;;;16.63;72.51;98720.10;435481;1255;110008;-42
2023/06/06 23:33:19;;;;;;;10.80;8.60;;;;;;;16.69;72.64;98712.32;435293;1265;108010;-42
2023/06/06 23:43:27;;;;;;;12.40;9.90;;;;;;;16.74;72.66;98712.27;435316;1257;97469;-42
